createdAt,value
2022-09-23T00:00:06.211Z,66087.03
2022-09-23T00:05:30.969Z,66077.56
2022-09-23T00:10:38.040Z,66065.63
2022-09-23T00:15:43.053Z,66091.31
2022-09-23T00:20:46.852Z,66092.47
2022-09-23T00:25:57.129Z,66044.25
2022-09-23T00:31:05.231Z,66016.97
2022-09-23T00:36:11.363Z,66016.44
2022-09-23T00:41:16.450Z,66020.38
2022-09-23T00:46:23.988Z,66058.22
2022-09-23T00:51:34.618Z,66172.38
2022-09-23T00:56:40.374Z,66154.81
2022-09-23T01:01:45.736Z,66029.19
2022-09-23T01:06:49.513Z,66037.84
2022-09-23T01:12:01.327Z,66083.38
2022-09-23T01:17:11.099Z,66001.09
2022-09-23T01:22:22.993Z,66052.31
2022-09-23T01:27:47.950Z,66087.22
2022-09-23T01:33:04.802Z,66106.41
2022-09-23T01:38:18.196Z,66099.00
2022-09-23T01:43:28.895Z,66206.88
2022-09-23T01:48:40.133Z,66227.50
2022-09-23T01:53:48.985Z,66318.78
2022-09-23T01:58:57.894Z,66341.94
2022-09-23T02:04:08.898Z,66375.66
2022-09-23T02:09:15.951Z,66257.56
2022-09-23T02:14:25.562Z,66339.16
2022-09-23T02:19:35.386Z,66242.63
2022-09-23T02:24:40.783Z,66238.75
2022-09-23T02:29:54.958Z,66215.25
2022-09-23T02:35:07.409Z,66257.63
2022-09-23T02:40:17.935Z,66256.47
2022-09-23T02:45:21.739Z,66163.72
2022-09-23T02:50:26.894Z,66111.75
2022-09-23T02:55:32.444Z,66082.66
2022-09-23T03:00:50.188Z,66019.28
2022-09-23T03:05:59.735Z,66011.59
2022-09-23T03:11:07.647Z,66029.38
2022-09-23T03:16:18.076Z,66000.47
2022-09-23T03:21:26.406Z,66046.31
2022-09-23T03:26:32.561Z,66000.91
2022-09-23T03:31:39.818Z,66061.50
2022-09-23T03:36:53.880Z,66072.22
2022-09-23T03:42:02.008Z,66087.75
2022-09-23T03:47:06.581Z,66084.44
2022-09-23T03:52:12.212Z,66093.81
2022-09-23T03:57:16.575Z,66127.28
2022-09-23T04:02:21.473Z,66136.94
2022-09-23T04:07:26.661Z,66081.16
2022-09-23T04:12:30.358Z,65996.09
2022-09-23T04:17:35.021Z,65965.59
2022-09-23T04:22:40.031Z,65971.75
2022-09-23T04:27:43.690Z,65968.19
2022-09-23T04:32:47.469Z,65955.06
2022-09-23T04:37:52.677Z,66030.88
2022-09-23T04:42:56.640Z,66081.41
2022-09-23T04:48:00.590Z,66088.81
2022-09-23T04:53:07.186Z,66133.72
2022-09-23T04:58:11.774Z,66150.34
2022-09-23T05:03:16.228Z,66118.28
2022-09-23T05:08:22.219Z,66154.63
2022-09-23T05:13:26.171Z,66139.53
2022-09-23T05:18:32.465Z,66172.19
2022-09-23T05:23:38.039Z,66213.66
2022-09-23T05:28:41.901Z,66185.06
2022-09-23T05:33:48.798Z,66199.72
2022-09-23T05:38:56.721Z,66219.63
2022-09-23T05:44:00.888Z,66245.38
2022-09-23T05:49:06.014Z,66100.69
2022-09-23T05:54:12.453Z,66264.34
2022-09-23T05:59:16.243Z,66273.81
2022-09-23T06:04:20.222Z,66318.31
2022-09-23T06:09:25.771Z,66301.44
2022-09-23T06:14:29.637Z,66376.28
2022-09-23T06:19:33.521Z,66255.56
2022-09-23T06:24:38.809Z,66148.09
2022-09-23T06:29:43.089Z,66225.28
2022-09-23T06:34:51.941Z,66247.97
2022-09-23T06:39:57.470Z,66148.09
2022-09-23T06:45:02.297Z,66136.47
2022-09-23T06:50:07.790Z,66210.53
2022-09-23T06:55:13.145Z,66249.59
2022-09-23T07:00:17.329Z,66258.69
2022-09-23T07:05:22.504Z,66295.00
2022-09-23T07:10:28.202Z,66391.81
2022-09-23T07:15:32.872Z,66397.13
2022-09-23T07:20:39.599Z,66403.47
2022-09-23T07:25:46.907Z,66402.03
2022-09-23T07:30:59.561Z,66390.69
2022-09-23T07:36:10.338Z,66360.63
2022-09-23T07:41:18.117Z,66328.44
2022-09-23T07:46:25.329Z,66268.28
2022-09-23T07:51:36.133Z,66261.47
2022-09-23T07:56:44.198Z,66284.63
2022-09-23T08:01:50.412Z,66290.44
2022-09-23T08:06:55.736Z,66332.72
2022-09-23T08:12:01.534Z,66411.63
2022-09-23T08:17:06.017Z,66282.47
2022-09-23T08:22:10.120Z,66319.84
2022-09-23T08:27:15.349Z,66522.72
2022-09-23T08:32:19.117Z,66499.63
2022-09-23T08:37:23.211Z,66432.56
2022-09-23T08:42:32.879Z,66507.59
2022-09-23T08:47:45.608Z,66425.06
2022-09-23T08:52:53.249Z,66476.97
2022-09-23T08:58:26.232Z,66503.94
2022-09-23T09:03:36.608Z,66515.28
2022-09-23T09:08:41.433Z,66511.00
2022-09-23T09:13:54.623Z,66456.13
2022-09-23T09:19:00.476Z,66449.75
2022-09-23T09:24:14.034Z,66447.06
2022-09-23T09:29:42.434Z,66509.91
2022-09-23T09:34:54.833Z,66541.09
2022-09-23T09:39:58.654Z,66618.50
2022-09-23T09:45:12.850Z,66608.09
2022-09-23T09:50:21.812Z,66690.50
2022-09-23T09:55:28.655Z,66564.75
2022-09-23T10:00:42.956Z,66573.78
2022-09-23T10:05:52.357Z,66610.41
2022-09-23T10:11:02.699Z,66709.47
2022-09-23T10:16:08.846Z,66819.28
2022-09-23T10:21:15.291Z,66906.84
2022-09-23T10:26:27.976Z,66839.06
2022-09-23T10:31:35.264Z,66842.97
2022-09-23T10:36:43.765Z,66790.09
2022-09-23T10:42:17.349Z,66613.66
2022-09-23T10:47:34.626Z,66507.69
2022-09-23T10:52:51.230Z,66269.53
2022-09-23T10:58:11.775Z,66071.59
2022-09-23T11:03:34.167Z,66025.19
2022-09-23T11:08:51.750Z,66030.88
2022-09-23T11:14:07.369Z,66038.38
2022-09-23T11:19:33.320Z,66103.72
2022-09-23T11:25:06.880Z,66200.34
2022-09-23T11:30:15.005Z,66293.56
2022-09-23T11:35:25.090Z,66398.66
2022-09-23T11:40:33.270Z,66722.38
2022-09-23T11:45:43.024Z,66963.09
2022-09-23T11:50:57.258Z,67095.16
2022-09-23T11:56:07.173Z,67146.50
2022-09-23T12:01:36.455Z,66806.19
2022-09-23T12:06:46.618Z,66736.81
2022-09-23T12:11:58.648Z,66492.88
2022-09-23T12:17:17.793Z,66571.19
2022-09-23T12:22:40.716Z,66519.56
2022-09-23T12:27:48.150Z,66373.59
2022-09-23T12:32:52.363Z,66405.63
2022-09-23T12:37:58.262Z,66362.75
2022-09-23T12:43:02.492Z,66383.16
2022-09-23T12:48:28.123Z,66371.44
2022-09-23T12:53:55.539Z,66333.72
2022-09-23T12:59:26.365Z,66281.84
2022-09-23T13:05:01.494Z,66362.31
2022-09-23T13:10:16.882Z,66445.91
2022-09-23T13:15:30.015Z,66471.31
2022-09-23T13:20:38.562Z,66565.41
2022-09-23T13:25:45.244Z,66766.97
2022-09-23T13:30:52.232Z,66970.66
2022-09-23T13:36:02.353Z,67197.63
2022-09-23T13:41:12.450Z,67155.06
2022-09-23T13:46:19.606Z,66976.59
2022-09-23T13:51:25.999Z,67016.41
2022-09-23T13:56:33.354Z,67165.97
2022-09-23T14:01:37.390Z,67116.78
2022-09-23T14:06:42.566Z,67310.56
2022-09-23T14:11:48.038Z,67335.44
2022-09-23T14:16:52.890Z,67255.47
2022-09-23T14:21:57.652Z,67325.72
2022-09-23T14:27:12.171Z,67279.38
2022-09-23T14:32:21.178Z,67247.44
2022-09-23T14:37:47.355Z,67170.78
2022-09-23T14:42:53.272Z,67122.59
2022-09-23T14:48:01.193Z,66935.97
2022-09-23T14:53:05.676Z,66812.22
2022-09-23T14:58:18.441Z,66621.72
2022-09-23T15:03:22.713Z,66541.63
2022-09-23T15:08:29.130Z,66556.66
2022-09-23T15:13:39.616Z,66479.19
2022-09-23T15:18:46.503Z,66492.09
2022-09-23T15:23:54.973Z,66567.34
2022-09-23T15:29:02.152Z,66646.44
2022-09-23T15:34:06.715Z,66784.78
2022-09-23T15:39:13.497Z,66833.59
2022-09-23T15:44:21.832Z,66962.50
2022-09-23T15:49:30.194Z,67010.94
2022-09-23T15:54:34.572Z,67063.81
2022-09-23T15:59:40.239Z,66959.81
2022-09-23T16:04:47.334Z,66923.16
2022-09-23T16:09:51.881Z,66866.66
2022-09-23T16:14:57.095Z,66874.13
2022-09-23T16:20:16.786Z,66728.69
2022-09-23T16:25:30.242Z,66500.25
2022-09-23T16:30:35.780Z,66485.13
2022-09-23T16:35:39.977Z,66339.00
2022-09-23T16:40:47.215Z,66317.09
2022-09-23T16:45:52.981Z,66258.69
2022-09-23T16:50:56.881Z,66240.28
2022-09-23T16:56:06.671Z,66187.31
2022-09-23T17:01:33.930Z,66146.03
2022-09-23T17:06:43.274Z,66148.81
2022-09-23T17:11:48.334Z,66107.56
2022-09-23T17:16:53.773Z,66064.09
2022-09-23T17:21:57.584Z,66056.59
2022-09-23T17:27:01.565Z,66075.97
2022-09-23T17:32:08.723Z,66043.28
2022-09-23T17:37:12.754Z,66107.56
2022-09-23T17:42:18.825Z,66190.06
2022-09-23T17:47:23.840Z,66143.81
2022-09-23T17:52:27.761Z,66183.56
2022-09-23T17:57:31.644Z,66223.31
2022-09-23T18:02:37.024Z,66183.09
2022-09-23T18:07:40.857Z,66162.03
2022-09-23T18:12:44.898Z,66186.41
2022-09-23T18:17:50.236Z,66219.00
2022-09-23T18:22:54.118Z,66215.19
2022-09-23T18:27:57.949Z,66204.53
2022-09-23T18:33:03.510Z,66184.63
2022-09-23T18:38:07.825Z,66119.81
2022-09-23T18:43:11.818Z,66045.44
2022-09-23T18:48:39.440Z,66174.91
2022-09-23T18:53:44.003Z,66066.69
2022-09-23T18:58:48.425Z,66041.50
2022-09-23T19:03:56.793Z,66027.03
2022-09-23T19:09:00.721Z,65993.41
2022-09-23T19:14:06.748Z,65979.06
2022-09-23T19:19:11.609Z,65980.22
2022-09-23T19:24:20.033Z,65973.53
2022-09-23T19:29:24.915Z,65988.16
2022-09-23T19:34:30.895Z,66031.50
2022-09-23T19:39:35.207Z,66186.31
2022-09-23T19:44:39.385Z,66257.38
2022-09-23T19:49:44.823Z,66217.31
2022-09-23T19:54:49.131Z,66186.84
2022-09-23T19:59:52.966Z,66219.56
2022-09-23T20:04:58.012Z,66168.63
2022-09-23T20:10:01.989Z,66161.66
2022-09-23T20:15:06.807Z,66164.25
2022-09-23T20:20:15.889Z,66095.59
2022-09-23T20:25:19.901Z,66166.47
2022-09-23T20:30:23.702Z,66147.56
2022-09-23T20:36:17.405Z,66239.22
2022-09-23T20:41:21.260Z,66172.66
2022-09-23T20:46:25.075Z,66234.38
2022-09-23T20:51:33.419Z,66165.88
2022-09-23T20:56:37.773Z,66165.41
2022-09-23T21:01:42.852Z,66227.97
2022-09-23T21:06:48.144Z,66257.09
2022-09-23T21:11:51.827Z,66247.97
2022-09-23T21:16:55.853Z,66279.09
2022-09-23T21:22:01.115Z,66186.84
2022-09-23T21:27:04.976Z,66178.81
2022-09-23T21:32:08.915Z,66214.72
2022-09-23T21:37:14.041Z,66193.28
2022-09-23T21:42:17.878Z,66221.59
2022-09-23T21:47:21.746Z,66267.66
2022-09-23T21:52:26.924Z,66157.28
2022-09-23T21:57:31.129Z,66202.31
2022-09-23T22:02:35.379Z,66230.19
2022-09-23T22:07:40.390Z,66271.03
2022-09-23T22:12:44.988Z,66235.47
2022-09-23T22:17:48.964Z,66260.75
2022-09-23T22:22:54.274Z,66192.66
2022-09-23T22:28:17.594Z,66165.34
2022-09-23T22:33:22.179Z,66128.00
2022-09-23T22:38:27.705Z,66171.22
2022-09-23T22:43:33.821Z,66159.63
2022-09-23T22:48:37.336Z,66092.03
2022-09-23T22:53:42.646Z,66061.94
2022-09-23T22:58:46.961Z,66103.72
2022-09-23T23:03:54.432Z,66048.56
2022-09-23T23:09:00.126Z,66146.13
2022-09-23T23:14:04.569Z,66195.88
2022-09-23T23:19:12.131Z,66158.09
2022-09-23T23:24:19.068Z,66190.44
2022-09-23T23:29:23.745Z,66237.78
2022-09-23T23:34:27.991Z,66191.59
2022-09-23T23:39:34.872Z,66210.88
2022-09-23T23:44:38.669Z,66184.63
2022-09-23T23:49:42.315Z,66155.69
2022-09-23T23:54:47.541Z,66194.19
2022-09-23T23:59:51.538Z,66237.78
